sensor_id;sensor_type;location;lat;lon;timestamp;temperature;humidity
37794;DHT22;23632;48.826;15.176;2022-10-31T21:37:05;18.10;80.20
37794;DHT22;23632;48.826;15.176;2022-10-31T21:39:34;18.10;81.50
37794;DHT22;23632;48.826;15.176;2022-10-31T21:42:04;18.30;81.40
37794;DHT22;23632;48.826;15.176;2022-10-31T21:44:33;18.80;80.90
37794;DHT22;23632;48.826;15.176;2022-10-31T21:47:00;19.20;80.80
37794;DHT22;23632;48.826;15.176;2022-10-31T21:49:27;19.70;80.20
37794;DHT22;23632;48.826;15.176;2022-10-31T21:51:56;20.00;79.60
37794;DHT22;23632;48.826;15.176;2022-10-31T21:54:24;20.40;79.10
37794;DHT22;23632;48.826;15.176;2022-10-31T21:56:57;20.80;78.70
37794;DHT22;23632;48.826;15.176;2022-10-31T21:59:26;21.10;78.30
37794;DHT22;23632;48.826;15.176;2022-10-31T22:01:55;21.40;77.90
37794;DHT22;23632;48.826;15.176;2022-10-31T22:04:24;21.60;77.50
37794;DHT22;23632;48.826;15.176;2022-10-31T22:06:54;21.90;77.20
37794;DHT22;23632;48.826;15.176;2022-10-31T22:09:22;22.10;76.80
37794;DHT22;23632;48.826;15.176;2022-10-31T22:11:50;22.30;76.60
37794;DHT22;23632;48.826;15.176;2022-10-31T22:14:20;22.50;76.30
37794;DHT22;23632;48.826;15.176;2022-10-31T22:21:22;22.80;75.60
37794;DHT22;23632;48.826;15.176;2022-10-31T22:23:52;23.00;75.30
37794;DHT22;23632;48.826;15.176;2022-10-31T22:26:21;23.10;75.00
37794;DHT22;23632;48.826;15.176;2022-10-31T22:28:51;23.20;74.90
37794;DHT22;23632;48.826;15.176;2022-10-31T22:31:21;23.30;74.70
37794;DHT22;23632;48.826;15.176;2022-10-31T22:33:50;23.40;74.60
37794;DHT22;23632;48.826;15.176;2022-10-31T22:36:23;23.50;74.40
37794;DHT22;23632;48.826;15.176;2022-10-31T22:38:53;23.60;74.00
37794;DHT22;23632;48.826;15.176;2022-10-31T22:41:23;23.60;74.00
37794;DHT22;23632;48.826;15.176;2022-10-31T22:43:52;23.70;73.80
37794;DHT22;23632;48.826;15.176;2022-10-31T22:46:25;23.70;73.60
37794;DHT22;23632;48.826;15.176;2022-10-31T22:48:59;23.80;73.30
37794;DHT22;23632;48.826;15.176;2022-10-31T22:51:30;23.90;73.40
37794;DHT22;23632;48.826;15.176;2022-10-31T22:53:59;23.90;73.30
37794;DHT22;23632;48.826;15.176;2022-10-31T22:56:29;23.90;73.10
37794;DHT22;23632;48.826;15.176;2022-10-31T22:58:58;24.00;72.90
37794;DHT22;23632;48.826;15.176;2022-10-31T23:01:28;24.00;72.80
37794;DHT22;23632;48.826;15.176;2022-10-31T23:03:56;24.00;72.70
37794;DHT22;23632;48.826;15.176;2022-10-31T23:06:27;24.00;72.60
37794;DHT22;23632;48.826;15.176;2022-10-31T23:08:55;24.10;72.50
37794;DHT22;23632;48.826;15.176;2022-10-31T23:11:28;24.10;72.40
37794;DHT22;23632;48.826;15.176;2022-10-31T23:13:59;24.10;72.20
37794;DHT22;23632;48.826;15.176;2022-10-31T23:19:15;24.20;72.10
37794;DHT22;23632;48.826;15.176;2022-10-31T23:21:47;24.20;71.90
37794;DHT22;23632;48.826;15.176;2022-10-31T23:27:19;24.20;71.80
37794;DHT22;23632;48.826;15.176;2022-10-31T23:32:28;24.20;71.60
37794;DHT22;23632;48.826;15.176;2022-10-31T23:34:59;24.30;71.70
37794;DHT22;23632;48.826;15.176;2022-10-31T23:37:30;24.20;71.50
37794;DHT22;23632;48.826;15.176;2022-10-31T23:39:58;24.20;71.40
37794;DHT22;23632;48.826;15.176;2022-10-31T23:42:26;24.30;71.40
37794;DHT22;23632;48.826;15.176;2022-10-31T23:44:54;24.30;71.40
37794;DHT22;23632;48.826;15.176;2022-10-31T23:47:22;24.30;71.30
37794;DHT22;23632;48.826;15.176;2022-10-31T23:49:49;24.30;71.30
37794;DHT22;23632;48.826;15.176;2022-10-31T23:52:17;24.30;71.20
37794;DHT22;23632;48.826;15.176;2022-10-31T23:54:45;24.30;71.10
37794;DHT22;23632;48.826;15.176;2022-10-31T23:57:13;24.30;71.10
37794;DHT22;23632;48.826;15.176;2022-10-31T23:59:41;24.40;71.10
